Portada
METAR-TAF:

METAR-TAF

Aeroports :

Batum, Geòrgia

latitud: 41-36-37N, longitud: 041-35-58E, altitud: 32 m

Observació

L'informe es va fer fa 24 minuts, a les 16:30 UTC
Vent 8 kt del Est/Sud-Est
Temperatura 5°C
Humitat 93%
Pressió 1019 hPa
Visibilitat 10 km o més
sense núvols per sota de 1500 mi sense presència de cumulonimbus.

METAR: UGSB 071630Z 12008KT CAVOK 05/04 Q1019 NOSIG

Hora: 20:54 (16:54 UTC)

Pronòstic

L'informe es va fer fa 5 hores i 54 minuts, a les 11:00 UTC
Pronòstic vàlid del 07 a les 12 UTC al 08 a les 12 UTC
Vent 3 kt amb direcció variable
Visibilitat 10 km o més
sense núvols per sota de 1500 mi sense presència de cumulonimbus.
Evolucionant progressivament
l' 07 a les 14 UTC al 07 a les 17 UTC
Vent 14 kt del Sud-Est
Evolucionant progressivament
l' 08 a les 08 UTC al 08 a les 09 UTC
Vent 7 kt del Sud-Oest
Escasses núvols a una alçada de 4000 ft

TAF: UGSB 071100Z 0712/0812 VRB03KT CAVOK TX13/0810Z TN08/0802Z BECMG 0714/0717 13014KT BECMG 0808/0809 23007KT FEW040

Observacions i pronòstics meteorològics de més de 4000 aeroports (METAR i TAF).

Les estacions disponibles són els punts grocs i vermells al mapa.

Posi el ratolí al punt desitjat per veure el nom de l'estació.

Feu clic per veure les observacions i els pronòstics meteorològics.

Per canviar el mapa: feu clic els botons verds amb una creu de color negre per apropar; al botó verd amb un guió per allunyar la imatge; o en les fletxes verdes per a mapes adjacents.


METAR-TAF: